createdAt,value
2019-03-27T00:00:02.786Z,99003.61
2019-03-27T00:02:33.362Z,98997.28
2019-03-27T00:05:04.072Z,99004.25
2019-03-27T00:07:34.429Z,99003.48
2019-03-27T00:10:06.246Z,99004.00
2019-03-27T00:12:36.562Z,99006.98
2019-03-27T00:15:13.452Z,99008.33
2019-03-27T00:17:40.598Z,99013.51
2019-03-27T00:20:11.310Z,99015.69
2019-03-27T00:22:41.829Z,99016.15
2019-03-27T00:25:12.757Z,99023.88
2019-03-27T00:27:43.235Z,99028.15
2019-03-27T00:30:13.722Z,99023.80
2019-03-27T00:32:44.145Z,99025.52
2019-03-27T00:35:15.373Z,99032.78
2019-03-27T00:37:45.656Z,99032.84
2019-03-27T00:40:16.049Z,99028.23
2019-03-27T00:42:46.646Z,99027.46
2019-03-27T00:45:26.347Z,99035.67
2019-03-27T00:47:49.834Z,99035.67
2019-03-27T00:50:20.054Z,99043.01
2019-03-27T00:52:51.445Z,99041.37
2019-03-27T00:55:21.919Z,99047.44
2019-03-27T00:57:52.232Z,99047.49
2019-03-27T01:00:42.699Z,99047.47
2019-03-27T01:03:13.304Z,99056.58
2019-03-27T01:05:43.645Z,99054.85
2019-03-27T01:08:13.905Z,99057.08
2019-03-27T01:10:44.327Z,99051.92
2019-03-27T01:13:15.229Z,99051.92
2019-03-27T01:15:45.675Z,99052.81
2019-03-27T01:18:16.055Z,99055.41
2019-03-27T01:20:46.481Z,99053.75
2019-03-27T01:23:16.951Z,99055.53
2019-03-27T01:25:47.502Z,99056.44
2019-03-27T01:28:18.279Z,99055.58
2019-03-27T01:30:48.762Z,99056.44
2019-03-27T01:33:19.177Z,99050.42
2019-03-27T01:35:49.732Z,99051.69
2019-03-27T01:38:20.230Z,99056.84
2019-03-27T01:40:50.718Z,99059.81
2019-03-27T01:43:21.075Z,99062.82
2019-03-27T01:45:53.272Z,99068.45
2019-03-27T01:48:24.511Z,99074.04
2019-03-27T01:50:55.055Z,99071.97
2019-03-27T01:53:25.671Z,99075.84
2019-03-27T01:55:56.024Z,99075.44
2019-03-27T01:58:26.551Z,99072.86
2019-03-27T02:00:57.185Z,99076.75
2019-03-27T02:03:27.518Z,99081.88
2019-03-27T02:05:57.838Z,99077.52
2019-03-27T02:08:28.223Z,99077.55
2019-03-27T02:10:58.704Z,99082.25
2019-03-27T02:13:29.345Z,99079.22
2019-03-27T02:16:06.632Z,99074.04
2019-03-27T02:18:33.091Z,99074.47
2019-03-27T02:21:03.742Z,99083.89
2019-03-27T02:23:34.177Z,99086.47
2019-03-27T02:26:04.655Z,99083.86
2019-03-27T02:28:34.966Z,99081.72
2019-03-27T02:31:05.554Z,99089.44
2019-03-27T02:33:36.198Z,99084.77
2019-03-27T02:36:06.638Z,99093.36
2019-03-27T02:38:37.326Z,99096.44
2019-03-27T02:41:08.032Z,99095.10
2019-03-27T02:43:38.576Z,99101.06
2019-03-27T02:46:23.836Z,99097.66
2019-03-27T02:48:41.433Z,99101.11
2019-03-27T02:51:11.799Z,99104.17
2019-03-27T02:53:42.275Z,99103.74
2019-03-27T02:56:12.580Z,99099.39
2019-03-27T02:58:43.079Z,99100.66
2019-03-27T03:01:13.520Z,99100.28
2019-03-27T03:03:43.947Z,99104.57
2019-03-27T03:06:14.216Z,99108.81
2019-03-27T03:08:44.805Z,99103.26
2019-03-27T03:11:15.305Z,99104.59
2019-03-27T03:13:45.944Z,99112.34
2019-03-27T03:16:16.565Z,99114.92
2019-03-27T03:18:47.041Z,99116.69
2019-03-27T03:21:17.651Z,99120.60
2019-03-27T03:23:47.985Z,99114.11
2019-03-27T03:26:18.530Z,99111.02
2019-03-27T03:28:49.039Z,99110.96
2019-03-27T03:31:19.453Z,99122.07
2019-03-27T03:33:49.984Z,99114.31
2019-03-27T03:36:20.575Z,99122.02
2019-03-27T03:38:51.066Z,99121.95
2019-03-27T03:41:21.733Z,99121.84
2019-03-27T03:43:51.921Z,99125.70
2019-03-27T03:46:22.543Z,99123.56
2019-03-27T03:48:53.068Z,99121.34
2019-03-27T03:51:24.382Z,99127.25
2019-03-27T03:53:54.961Z,99126.23
2019-03-27T03:56:27.386Z,99131.66
2019-03-27T03:58:58.661Z,99130.64
2019-03-27T04:01:29.433Z,99138.20
2019-03-27T04:04:00.728Z,99135.45
2019-03-27T04:06:32.283Z,99143.54
2019-03-27T04:09:02.837Z,99133.56
2019-03-27T04:11:33.306Z,99139.09
2019-03-27T04:14:03.957Z,99144.20
2019-03-27T04:16:34.638Z,99136.89
2019-03-27T04:19:05.245Z,99134.28
2019-03-27T04:21:35.798Z,99131.22
2019-03-27T04:24:06.499Z,99131.62
2019-03-27T04:26:37.820Z,99134.97
2019-03-27T04:29:10.712Z,99138.27
2019-03-27T04:31:41.447Z,99139.37
2019-03-27T04:34:12.099Z,99140.45
2019-03-27T04:36:42.842Z,99144.64
2019-03-27T04:39:13.307Z,99149.67
2019-03-27T04:41:46.865Z,99150.02
2019-03-27T04:44:17.428Z,99149.06
2019-03-27T04:46:47.982Z,99151.58
2019-03-27T04:49:18.619Z,99153.67
2019-03-27T04:51:49.399Z,99150.62
2019-03-27T04:54:19.759Z,99157.48
2019-03-27T04:56:50.653Z,99153.97
2019-03-27T04:59:21.816Z,99160.80
2019-03-27T05:01:52.372Z,99162.42
2019-03-27T05:04:24.790Z,99169.64
2019-03-27T05:06:56.318Z,99177.79
2019-03-27T05:09:27.294Z,99175.17
2019-03-27T05:11:57.977Z,99182.00
2019-03-27T05:14:28.552Z,99180.61
2019-03-27T05:16:59.205Z,99175.84
2019-03-27T05:19:29.883Z,99173.62
2019-03-27T05:22:00.476Z,99182.57
2019-03-27T05:24:31.177Z,99191.18
2019-03-27T05:27:01.828Z,99190.66
2019-03-27T05:29:32.338Z,99195.75
2019-03-27T05:32:02.991Z,99198.23
2019-03-27T05:34:33.662Z,99195.13
2019-03-27T05:37:11.752Z,99205.00
2019-03-27T05:39:43.818Z,99203.77
2019-03-27T05:42:14.466Z,99203.38
2019-03-27T05:44:46.079Z,99211.00
2019-03-27T05:47:16.786Z,99214.28
2019-03-27T05:49:47.387Z,99205.56
2019-03-27T05:52:18.448Z,99216.20
2019-03-27T05:54:49.669Z,99210.03
2019-03-27T05:57:20.233Z,99214.64
2019-03-27T05:59:51.192Z,99209.73
2019-03-27T06:02:29.537Z,99218.96
2019-03-27T06:05:00.751Z,99219.58
2019-03-27T06:07:31.808Z,99211.64
2019-03-27T06:10:02.354Z,99219.16
2019-03-27T06:12:33.235Z,99219.47
2019-03-27T06:15:04.857Z,99219.40
2019-03-27T06:17:35.585Z,99225.25
2019-03-27T06:20:06.289Z,99217.81
2019-03-27T06:22:37.241Z,99222.02
2019-03-27T06:25:08.359Z,99230.56
2019-03-27T06:27:42.050Z,99225.50
2019-03-27T06:30:12.607Z,99223.37
2019-03-27T06:32:43.904Z,99228.52
2019-03-27T06:35:14.615Z,99231.46
2019-03-27T06:37:45.494Z,99237.30
2019-03-27T06:40:16.835Z,99244.41
2019-03-27T06:42:47.605Z,99239.51
2019-03-27T06:45:19.352Z,99251.52
2019-03-27T06:47:49.923Z,99248.81
2019-03-27T06:50:20.344Z,99243.60
2019-03-27T06:52:51.269Z,99245.72
2019-03-27T06:55:22.198Z,99244.07
2019-03-27T06:57:52.884Z,99248.81
2019-03-27T07:00:35.388Z,99247.05
2019-03-27T07:03:06.704Z,99258.44
2019-03-27T07:05:37.408Z,99251.23
2019-03-27T07:08:07.987Z,99247.94
2019-03-27T07:10:39.254Z,99249.43
2019-03-27T07:13:10.248Z,99258.69
2019-03-27T07:15:41.437Z,99260.96
2019-03-27T07:18:12.905Z,99256.75
2019-03-27T07:20:43.920Z,99259.22
2019-03-27T07:23:16.488Z,99260.91
2019-03-27T07:25:47.267Z,99262.59
2019-03-27T07:28:18.375Z,99263.77
2019-03-27T07:30:49.301Z,99262.78
2019-03-27T07:33:19.967Z,99265.25
2019-03-27T07:35:50.635Z,99269.38
2019-03-27T07:38:21.237Z,99268.55
2019-03-27T07:40:51.898Z,99275.43
2019-03-27T07:43:22.951Z,99270.95
2019-03-27T07:45:54.034Z,99274.55
2019-03-27T07:48:25.446Z,99274.86
2019-03-27T07:50:56.935Z,99280.94
2019-03-27T07:53:27.597Z,99279.56
2019-03-27T07:55:58.412Z,99283.68
2019-03-27T07:58:29.183Z,99280.61
2019-03-27T08:01:00.968Z,99281.91
2019-03-27T08:03:31.741Z,99280.95
2019-03-27T08:06:02.517Z,99281.12
2019-03-27T08:08:33.006Z,99286.02
2019-03-27T08:11:03.821Z,99285.67
2019-03-27T08:13:35.487Z,99291.55
2019-03-27T08:16:06.266Z,99296.44
2019-03-27T08:18:36.927Z,99282.82
2019-03-27T08:21:07.915Z,99287.61
2019-03-27T08:23:38.530Z,99301.41
2019-03-27T08:26:09.199Z,99297.00
2019-03-27T08:28:39.801Z,99299.94
2019-03-27T08:31:10.585Z,99300.33
2019-03-27T08:33:41.205Z,99305.38
2019-03-27T08:36:11.777Z,99300.84
2019-03-27T08:38:42.693Z,99292.02
2019-03-27T08:41:13.654Z,99305.63
2019-03-27T08:43:44.516Z,99303.08
2019-03-27T08:46:15.243Z,99307.02
2019-03-27T08:48:45.819Z,99308.31
2019-03-27T08:51:16.545Z,99305.93
2019-03-27T08:53:47.595Z,99313.89
2019-03-27T08:56:21.113Z,99303.31
2019-03-27T08:58:51.929Z,99314.91
2019-03-27T09:01:22.762Z,99324.67
2019-03-27T09:03:53.671Z,99325.27
2019-03-27T09:06:33.677Z,99330.14
2019-03-27T09:08:56.874Z,99332.44
2019-03-27T09:11:27.450Z,99333.05
2019-03-27T09:13:58.419Z,99342.62
2019-03-27T09:16:30.063Z,99343.54
2019-03-27T09:19:00.770Z,99348.04
2019-03-27T09:21:34.432Z,99343.23
2019-03-27T09:24:05.708Z,99347.82
2019-03-27T09:26:36.798Z,99345.42
2019-03-27T09:29:10.881Z,99348.84
2019-03-27T09:31:45.198Z,99342.52
2019-03-27T09:34:17.671Z,99355.47
2019-03-27T09:36:47.681Z,99364.91
2019-03-27T09:39:18.416Z,99363.90
2019-03-27T09:41:49.233Z,99360.23
2019-03-27T09:44:20.483Z,99361.59
2019-03-27T09:46:51.235Z,99366.63
2019-03-27T09:49:21.987Z,99370.52
2019-03-27T09:51:52.798Z,99367.24
2019-03-27T09:54:23.606Z,99382.84
2019-03-27T09:56:54.527Z,99391.89
2019-03-27T09:59:25.170Z,99375.71
2019-03-27T10:01:55.738Z,99382.55
2019-03-27T10:04:26.732Z,99387.25
2019-03-27T10:06:57.869Z,99393.34
2019-03-27T10:09:28.830Z,99389.97
2019-03-27T10:11:59.451Z,99390.34
2019-03-27T10:14:30.065Z,99388.81
2019-03-27T10:17:00.973Z,99393.34
2019-03-27T10:19:31.773Z,99396.73
2019-03-27T10:22:02.664Z,99391.52
2019-03-27T10:24:33.736Z,99399.17
2019-03-27T10:27:04.843Z,99396.27
2019-03-27T10:29:35.727Z,99404.52
2019-03-27T10:32:06.887Z,99390.00
2019-03-27T10:34:37.608Z,99397.89
2019-03-27T10:37:08.342Z,99396.52
2019-03-27T10:39:38.900Z,99396.78
2019-03-27T10:42:09.472Z,99405.34
2019-03-27T10:44:40.496Z,99406.77
2019-03-27T10:47:11.150Z,99409.89
2019-03-27T10:49:43.831Z,99403.30
2019-03-27T10:52:14.320Z,99407.57
2019-03-27T10:54:44.947Z,99410.05
2019-03-27T10:57:15.450Z,99432.68
2019-03-27T10:59:46.270Z,99414.60
2019-03-27T11:02:17.376Z,99421.83
2019-03-27T11:04:48.911Z,99418.55
2019-03-27T11:07:19.233Z,99420.33
2019-03-27T11:09:49.876Z,99431.69
2019-03-27T11:12:21.421Z,99430.64
2019-03-27T11:14:51.988Z,99432.55
2019-03-27T11:17:22.614Z,99431.50
2019-03-27T11:19:53.423Z,99437.87
2019-03-27T11:22:23.904Z,99441.27
2019-03-27T11:24:54.434Z,99442.31
2019-03-27T11:27:24.981Z,99440.19
2019-03-27T11:29:55.765Z,99447.76
2019-03-27T11:32:26.474Z,99456.44
2019-03-27T11:34:57.887Z,99451.08
2019-03-27T11:37:28.600Z,99449.45
2019-03-27T11:39:59.291Z,99456.84
2019-03-27T11:42:29.978Z,99456.77
2019-03-27T11:45:01.842Z,99468.31
2019-03-27T11:47:33.024Z,99462.31
2019-03-27T11:50:04.073Z,99467.44
2019-03-27T11:52:35.157Z,99466.25
2019-03-27T11:55:06.682Z,99467.84
2019-03-27T11:57:37.511Z,99470.94
2019-03-27T12:00:09.314Z,99468.92
2019-03-27T12:02:40.182Z,99474.72
2019-03-27T12:05:10.820Z,99467.79
2019-03-27T12:07:42.414Z,99474.36
2019-03-27T12:10:12.975Z,99475.25
2019-03-27T12:12:44.168Z,99483.70
2019-03-27T12:15:17.094Z,99479.50
2019-03-27T12:17:47.590Z,99490.20
2019-03-27T12:20:19.241Z,99497.17
2019-03-27T12:22:57.533Z,99489.91
2019-03-27T12:25:24.392Z,99498.20
2019-03-27T12:27:55.824Z,99488.80
2019-03-27T12:30:26.938Z,99487.49
2019-03-27T12:32:57.351Z,99495.40
2019-03-27T12:35:27.992Z,99499.11
2019-03-27T12:37:58.553Z,99503.39
2019-03-27T12:40:29.531Z,99502.91
2019-03-27T12:43:01.669Z,99509.41
2019-03-27T12:45:32.149Z,99518.12
2019-03-27T12:48:03.755Z,99515.02
2019-03-27T12:50:34.791Z,99517.25
2019-03-27T12:53:05.726Z,99523.10
2019-03-27T12:55:36.621Z,99511.50
2019-03-27T12:58:07.051Z,99523.23
2019-03-27T13:00:38.888Z,99520.34
2019-03-27T13:03:10.143Z,99521.89
2019-03-27T13:05:40.928Z,99527.09
2019-03-27T13:08:11.674Z,99527.05
2019-03-27T13:10:42.506Z,99535.61
2019-03-27T13:13:13.313Z,99544.91
2019-03-27T13:15:45.154Z,99543.45
2019-03-27T13:18:16.283Z,99550.03
2019-03-27T13:20:46.996Z,99548.84
2019-03-27T13:23:17.626Z,99548.69
2019-03-27T13:25:48.423Z,99563.83
2019-03-27T13:28:19.326Z,99562.41
2019-03-27T13:30:49.819Z,99563.58
2019-03-27T13:33:20.583Z,99567.83
2019-03-27T13:35:51.426Z,99559.80
2019-03-27T13:38:22.704Z,99569.42
2019-03-27T13:40:53.284Z,99562.98
2019-03-27T13:43:23.901Z,99569.06
2019-03-27T13:45:54.693Z,99573.81
2019-03-27T13:48:25.654Z,99572.31
2019-03-27T13:50:56.195Z,99568.77
2019-03-27T13:53:27.256Z,99576.33
2019-03-27T13:55:58.335Z,99575.12
2019-03-27T13:58:28.792Z,99584.90
2019-03-27T14:00:59.821Z,99584.08
2019-03-27T14:03:30.555Z,99588.48
2019-03-27T14:06:01.337Z,99585.77
2019-03-27T14:08:32.016Z,99586.81
2019-03-27T14:11:02.894Z,99593.23
2019-03-27T14:13:34.760Z,99597.77
2019-03-27T14:16:05.420Z,99597.09
2019-03-27T14:18:36.119Z,99596.22
2019-03-27T14:21:09.490Z,99611.20
2019-03-27T14:23:41.090Z,99618.38
2019-03-27T14:26:11.906Z,99611.42
2019-03-27T14:28:42.502Z,99617.44
2019-03-27T14:31:13.217Z,99614.28
2019-03-27T14:33:45.857Z,99619.92
2019-03-27T14:36:16.807Z,99624.03
2019-03-27T14:38:47.342Z,99624.25
2019-03-27T14:41:18.123Z,99622.23
2019-03-27T14:43:49.194Z,99630.91
2019-03-27T14:46:19.690Z,99624.98
2019-03-27T14:48:50.700Z,99627.69
2019-03-27T14:51:21.291Z,99634.00
2019-03-27T14:53:52.442Z,99637.70
2019-03-27T14:56:23.266Z,99642.30
2019-03-27T14:58:54.936Z,99646.74
2019-03-27T15:01:25.670Z,99650.83
2019-03-27T15:03:56.380Z,99650.98
2019-03-27T15:06:26.898Z,99650.98
2019-03-27T15:08:57.584Z,99650.15
2019-03-27T15:11:28.138Z,99649.43
2019-03-27T15:13:59.889Z,99661.66
2019-03-27T15:16:33.671Z,99657.12
2019-03-27T15:19:07.226Z,99666.41
2019-03-27T15:21:37.567Z,99670.48
2019-03-27T15:24:08.071Z,99668.32
2019-03-27T15:26:38.696Z,99674.08
2019-03-27T15:29:09.249Z,99674.91
2019-03-27T15:31:40.740Z,99672.25
2019-03-27T15:34:11.573Z,99680.39
2019-03-27T15:36:42.169Z,99680.00
2019-03-27T15:39:12.801Z,99682.20
2019-03-27T15:41:43.504Z,99685.29
2019-03-27T15:44:14.474Z,99690.12
2019-03-27T15:46:45.149Z,99693.28
2019-03-27T15:49:15.755Z,99689.56
2019-03-27T15:51:46.379Z,99696.14
2019-03-27T15:54:17.150Z,99701.37
2019-03-27T15:56:47.694Z,99702.13
2019-03-27T15:59:18.068Z,99707.38
2019-03-27T16:01:48.700Z,99709.98
2019-03-27T16:04:19.083Z,99707.38
2019-03-27T16:06:50.236Z,99712.64
2019-03-27T16:09:21.197Z,99723.70
2019-03-27T16:11:51.752Z,99728.58
2019-03-27T16:14:22.893Z,99731.46
2019-03-27T16:17:11.941Z,99737.57
2019-03-27T16:19:25.818Z,99735.53
2019-03-27T16:21:56.684Z,99737.84
2019-03-27T16:24:27.393Z,99746.33
2019-03-27T16:27:04.390Z,99751.28
2019-03-27T16:29:30.570Z,99745.55
2019-03-27T16:32:03.168Z,99759.20
2019-03-27T16:34:33.819Z,99761.62
2019-03-27T16:37:04.315Z,99752.89
2019-03-27T16:39:34.671Z,99769.83
2019-03-27T16:42:05.747Z,99764.33
2019-03-27T16:44:36.585Z,99771.78
2019-03-27T16:47:10.380Z,99774.45
2019-03-27T16:49:41.314Z,99778.52
2019-03-27T16:52:11.938Z,99779.09
2019-03-27T16:54:42.691Z,99779.11
2019-03-27T16:57:14.541Z,99779.66
2019-03-27T16:59:46.446Z,99786.18
2019-03-27T17:02:17.013Z,99786.30
2019-03-27T17:04:47.675Z,99793.11
2019-03-27T17:07:19.002Z,99784.87
2019-03-27T17:09:50.320Z,99790.42
2019-03-27T17:12:21.896Z,99801.09
2019-03-27T17:14:52.402Z,99793.53
2019-03-27T17:17:23.152Z,99798.52
2019-03-27T17:19:53.900Z,99799.28
2019-03-27T17:22:24.433Z,99794.99
2019-03-27T17:24:56.141Z,99800.25
2019-03-27T17:27:26.796Z,99801.61
2019-03-27T17:29:58.107Z,99815.08
2019-03-27T17:32:28.664Z,99811.78
2019-03-27T17:34:59.211Z,99817.16
2019-03-27T17:37:30.133Z,99813.89
2019-03-27T17:40:00.785Z,99824.38
2019-03-27T17:42:32.019Z,99828.42
2019-03-27T17:45:03.282Z,99831.54
2019-03-27T17:47:33.870Z,99827.25
2019-03-27T17:50:04.916Z,99831.58
2019-03-27T17:52:37.994Z,99828.69
2019-03-27T17:55:08.780Z,99823.96
2019-03-27T17:57:39.334Z,99832.59
2019-03-27T18:00:11.642Z,99826.63
2019-03-27T18:02:43.277Z,99831.30
2019-03-27T18:05:15.854Z,99829.91
2019-03-27T18:07:46.732Z,99830.41
2019-03-27T18:10:18.066Z,99821.88
2019-03-27T18:12:51.095Z,99818.98
2019-03-27T18:15:24.311Z,99822.45
2019-03-27T18:17:55.114Z,99827.63
2019-03-27T18:20:26.223Z,99827.56
2019-03-27T18:22:57.826Z,99828.69
2019-03-27T18:25:28.666Z,99836.70
2019-03-27T18:28:00.763Z,99831.79
2019-03-27T18:30:31.472Z,99839.44
2019-03-27T18:33:02.622Z,99843.61
2019-03-27T18:35:34.387Z,99845.25
2019-03-27T18:38:05.840Z,99837.48
2019-03-27T18:40:36.269Z,99837.84
2019-03-27T18:43:07.033Z,99835.13
2019-03-27T18:45:37.635Z,99830.78
2019-03-27T18:48:08.925Z,99840.63
2019-03-27T18:50:42.385Z,99835.88
2019-03-27T18:53:12.997Z,99832.50
2019-03-27T18:55:43.595Z,99843.05
2019-03-27T18:58:14.422Z,99838.60
2019-03-27T19:00:44.836Z,99845.33
2019-03-27T19:03:15.243Z,99845.48
2019-03-27T19:05:50.047Z,99841.37
2019-03-27T19:08:24.325Z,99844.94
2019-03-27T19:10:55.505Z,99849.80
2019-03-27T19:13:28.374Z,99844.78
2019-03-27T19:16:00.914Z,99840.53
2019-03-27T19:18:31.710Z,99841.90
2019-03-27T19:21:02.223Z,99842.85
2019-03-27T19:23:35.473Z,99839.90
2019-03-27T19:26:05.918Z,99843.81
2019-03-27T19:28:39.260Z,99843.44
2019-03-27T19:31:09.754Z,99844.73
2019-03-27T19:33:40.209Z,99842.14
2019-03-27T19:36:11.015Z,99847.28
2019-03-27T19:38:41.524Z,99846.02
2019-03-27T19:41:12.398Z,99843.38
2019-03-27T19:43:43.059Z,99844.61
2019-03-27T19:46:14.344Z,99842.38
2019-03-27T19:48:45.190Z,99845.72
2019-03-27T19:51:15.632Z,99844.28
2019-03-27T19:53:46.475Z,99844.58
2019-03-27T19:56:17.030Z,99850.05
2019-03-27T19:58:47.496Z,99845.64
2019-03-27T20:01:18.203Z,99848.54
2019-03-27T20:03:48.901Z,99847.16
2019-03-27T20:06:19.523Z,99853.92
2019-03-27T20:08:50.024Z,99853.88
2019-03-27T20:11:20.464Z,99861.50
2019-03-27T20:13:51.064Z,99858.88
2019-03-27T20:16:21.704Z,99869.12
2019-03-27T20:18:52.394Z,99864.37
2019-03-27T20:21:23.107Z,99862.56
2019-03-27T20:23:53.714Z,99862.59
2019-03-27T20:26:24.388Z,99867.73
2019-03-27T20:28:54.894Z,99875.41
2019-03-27T20:31:25.564Z,99871.91
2019-03-27T20:33:56.018Z,99877.06
2019-03-27T20:36:27.749Z,99880.09
2019-03-27T20:38:58.275Z,99873.64
2019-03-27T20:41:29.021Z,99879.24
2019-03-27T20:43:59.541Z,99886.59
2019-03-27T20:46:30.499Z,99882.34
2019-03-27T20:49:00.951Z,99884.31
2019-03-27T20:51:31.924Z,99883.88
2019-03-27T20:54:02.516Z,99896.02
2019-03-27T20:56:34.163Z,99894.32
2019-03-27T20:59:04.892Z,99895.72
2019-03-27T21:01:35.690Z,99894.80
2019-03-27T21:04:06.074Z,99898.20
2019-03-27T21:06:36.565Z,99896.01
2019-03-27T21:09:07.636Z,99895.56
2019-03-27T21:11:38.056Z,99901.13
2019-03-27T21:14:08.388Z,99900.75
2019-03-27T21:16:38.670Z,99899.82
2019-03-27T21:19:09.107Z,99903.20
2019-03-27T21:21:41.933Z,99900.56
2019-03-27T21:24:12.343Z,99906.55
2019-03-27T21:26:43.410Z,99905.69
2019-03-27T21:29:13.926Z,99902.25
2019-03-27T21:31:44.339Z,99907.81
2019-03-27T21:34:15.001Z,99906.88
2019-03-27T21:36:45.454Z,99914.66
2019-03-27T21:39:15.848Z,99914.17
2019-03-27T21:41:46.336Z,99909.02
2019-03-27T21:44:16.889Z,99912.45
2019-03-27T21:46:47.351Z,99914.08
2019-03-27T21:49:18.036Z,99912.69
2019-03-27T21:51:48.499Z,99912.65
2019-03-27T21:54:19.071Z,99916.56
2019-03-27T21:56:49.627Z,99919.52
2019-03-27T21:59:22.552Z,99922.91
2019-03-27T22:01:52.444Z,99922.05
2019-03-27T22:04:23.222Z,99921.33
2019-03-27T22:06:53.726Z,99917.87
2019-03-27T22:09:24.158Z,99921.50
2019-03-27T22:11:54.502Z,99919.75
2019-03-27T22:14:25.229Z,99924.06
2019-03-27T22:16:56.173Z,99919.73
2019-03-27T22:19:26.822Z,99920.60
2019-03-27T22:21:57.251Z,99923.24
2019-03-27T22:24:27.496Z,99927.59
2019-03-27T22:26:58.116Z,99927.13
2019-03-27T22:29:28.488Z,99923.77
2019-03-27T22:31:58.976Z,99917.70
2019-03-27T22:34:29.419Z,99920.76
2019-03-27T22:37:00.027Z,99924.64
2019-03-27T22:39:30.598Z,99921.13
2019-03-27T22:42:01.034Z,99925.39
2019-03-27T22:44:31.797Z,99920.66
2019-03-27T22:47:03.076Z,99930.56
2019-03-27T22:49:33.617Z,99936.67
2019-03-27T22:52:04.215Z,99930.17
2019-03-27T22:54:34.749Z,99924.91
2019-03-27T22:57:05.264Z,99927.94
2019-03-27T22:59:35.925Z,99918.92
2019-03-27T23:02:06.314Z,99924.47
2019-03-27T23:04:37.450Z,99926.19
2019-03-27T23:07:07.825Z,99916.72
2019-03-27T23:09:38.193Z,99921.52
2019-03-27T23:12:09.144Z,99928.09
2019-03-27T23:14:39.541Z,99931.11
2019-03-27T23:17:09.878Z,99927.66
2019-03-27T23:19:40.380Z,99926.48
2019-03-27T23:22:10.922Z,99935.48
2019-03-27T23:24:43.339Z,99937.20
2019-03-27T23:27:13.831Z,99933.85
2019-03-27T23:29:44.343Z,99944.98
2019-03-27T23:32:14.738Z,99939.02
2019-03-27T23:34:44.930Z,99942.51
2019-03-27T23:37:15.612Z,99937.75
2019-03-27T23:39:45.802Z,99945.92
2019-03-27T23:42:16.574Z,99938.23
2019-03-27T23:44:47.093Z,99940.34
2019-03-27T23:47:17.674Z,99949.35
2019-03-27T23:49:48.063Z,99947.69
2019-03-27T23:52:18.381Z,99949.88
2019-03-27T23:54:48.839Z,99956.37
2019-03-27T23:57:19.174Z,99953.80
2019-03-27T23:59:49.463Z,99954.16
